Terminal Aerodrome Forecast
Issued by NWS Upton, NY

Home | Current Version | Previous Version | Text Only | Print | Product List | Glossary On
Versions: 1 2 3 4 5 6 7 8 9 10 11 12 13 14 15 16 17 18 19 20 21 22 23 24 25 26 27 28 29 30 31 32 33 34 35 36 37 38 39
000
FTUS41 KOKX 281937 CCA
TAFISP
TAF COR
KISP 281937Z 2820/2918 11007KT 5SM -RA BR OVC006
      TEMPO 2820/2823 1SM BR OVC003
     FM282300 06004KT 3SM -RA BR OVC004
     FM290500 02005KT 5SM BR OVC004
     FM290800 35008KT P6SM BKN010
     FM291200 35010KT P6SM BKN050
     FM291500 34014KT P6SM SCT250=

USA.gov is the U.S. government's official web portal to all federal, state and local government web resources and services.